Latest Weather Observations for Sydney Harbour

IDN60801

Issued at 10:32 pm EST Wednesday 1 July 2015 (issued every 30 minutes, with the page automatically refreshed every 10 minutes)

About weather observations | Map of weather stations | Latest weather observations for NSW | Other Formats
Station Details ID: 066196 Name: WEDDING CAKE WEST Lat: -33.84 Lon: 151.26 Height: 6.0 m
Data from the previous 72 hours. | See also: Recent months for locations in New South Wales
Date/Time
EST
Temp
°C
App
Temp
°C
Dew
Point
Rel
Hum
%
Delta-T
°C
Wind Press
QNH
hPa
Press
MSL
hPa
Rain
since 9 am
mm
Dir
 
Spd
km/h
Gust
km/h
Spd
kts
Gust
kts
01/10:30pm 11.7 - - - - WSW 20 26 11 14 - - -
01/10:00pm 11.8 - - - - W 17 20 9 11 - - -
01/09:30pm 12.4 - - - - WNW 4 9 2 5 - - -
01/09:00pm 13.1 - - - - WNW 9 11 5 6 - - -
01/08:30pm 13.2 - - - - WNW 11 13 6 7 - - -
01/08:00pm 13.2 - - - - S 7 9 4 5 - - -
01/07:30pm 13.4 - - - - CALM 0 0 0 0 - - -
01/07:00pm 14.0 - - - - CALM 0 0 0 0 - - -
01/06:30pm 14.0 - - - - S 2 9 1 5 - - -
01/06:00pm 14.1 - - - - S 9 11 5 6 - - -
01/05:30pm 14.2 - - - - SSE 13 15 7 8 - - -
01/05:00pm 14.3 - - - - S 15 19 8 10 - - -
01/04:30pm 15.0 - - - - SSW 17 19 9 10 - - -
01/04:00pm 15.5 - - - - SW 17 20 9 11 - - -
01/03:30pm 15.6 - - - - W 9 11 5 6 - - -
01/03:00pm 15.4 - - - - W 11 13 6 7 - - -
01/02:30pm 15.3 - - - - W 9 13 5 7 - - -
01/02:00pm 14.7 - - - - W 11 15 6 8 - - -
01/01:30pm 14.3 - - - - WSW 15 20 8 11 - - -
01/01:00pm 14.3 - - - - WSW 17 20 9 11 - - -
01/12:30pm 13.8 - - - - WSW 15 20 8 11 - - -
01/12:00pm 13.4 - - - - W 17 22 9 12 - - -
01/11:30am 12.9 - - - - W 17 22 9 12 - - -
01/11:00am 12.5 - - - - WSW 20 26 11 14 - - -
01/10:30am 12.0 - - - - W 20 26 11 14 - - -
01/10:00am 12.5 - - - - WSW 17 20 9 11 - - -
01/09:30am 12.3 - - - - W 19 26 10 14 - - -
01/09:00am 12.4 - - - - W 19 26 10 14 - - -
01/08:30am 12.2 - - - - W 19 20 10 11 - - -
01/08:00am 13.1 - - - - SW 20 24 11 13 - - -
01/07:30am 12.7 - - - - SW 13 15 7 8 - - -
01/07:00am 12.8 - - - - SW 17 20 9 11 - - -
01/06:30am 12.7 - - - - SW 19 20 10 11 - - -
01/06:00am 13.1 - - - - SW 19 22 10 12 - - -
01/05:30am 12.9 - - - - SW 20 22 11 12 - - -
01/05:00am 13.3 - - - - W 19 22 10 12 - - -
01/04:30am 14.0 - - - - WSW 17 20 9 11 - - -
01/04:00am 14.1 - - - - W 20 28 11 15 - - -
01/03:30am 14.3 - - - - WSW 19 24 10 13 - - -
01/03:00am 14.7 - - - - WSW 17 22 9 12 - - -
01/02:30am 14.3 - - - - WSW 17 20 9 11 - - -
01/02:00am 14.5 - - - - SW 9 11 5 6 - - -
01/01:30am 14.1 - - - - WSW 9 13 5 7 - - -
01/01:00am 13.8 - - - - W 13 17 7 9 - - -
01/12:30am 13.3 - - - - W 13 15 7 8 - - -
01/12:00am 13.6 - - - - W 9 13 5 7 - - -
 
Date/Time
EST
Temp
°C
App
Temp
°C
Dew
Point
Rel
Hum
%
Delta-T
°C
Wind Press
QNH
hPa
Press
MSL
hPa
Rain
since 9 am
mm
Dir
 
Spd
km/h
Gust
km/h
Spd
kts
Gust
kts
30/11:30pm 14.1 - - - - W 13 17 7 9 - - -
30/11:00pm 14.4 - - - - WNW 11 17 6 9 - - -
30/10:30pm 15.1 - - - - WNW 7 9 4 5 - - -
30/10:00pm 15.4 - - - - WNW 6 7 3 4 - - -
30/09:30pm 15.3 - - - - NW 11 11 6 6 - - -
30/09:00pm 15.8 - - - - NW 9 11 5 6 - - -
30/08:30pm 16.3 - - - - N 13 19 7 10 - - -
30/08:00pm 16.2 - - - - N 13 15 7 8 - - -
30/07:30pm 16.2 - - - - N 9 13 5 7 - - -
30/07:00pm 16.2 - - - - N 9 11 5 6 - - -
30/06:30pm 16.5 - - - - N 13 15 7 8 - - -
30/06:00pm 16.3 - - - - N 9 11 5 6 - - -
30/05:30pm 16.2 - - - - NNE 11 13 6 7 - - -
30/05:00pm 16.6 - - - - NNE 11 11 6 6 - - -
30/04:30pm 16.5 - - - - NNE 9 11 5 6 - - -
30/04:00pm 16.3 - - - - NNE 9 13 5 7 - - -
30/03:30pm 16.2 - - - - NE 9 13 5 7 - - -
30/03:00pm 16.0 - - - - SW 9 13 5 7 - - -
30/02:30pm 16.9 - - - - SW 2 6 1 3 - - -
30/02:00pm 15.2 - - - - SW 7 9 4 5 - - -
30/01:30pm 14.6 - - - - SW 9 11 5 6 - - -
30/01:00pm 14.2 - - - - SW 9 11 5 6 - - -
30/12:30pm 13.7 - - - - SW 13 17 7 9 - - -
30/12:00pm 13.6 - - - - SW 15 19 8 10 - - -
30/11:30am 13.9 - - - - W 7 9 4 5 - - -
30/11:00am 13.1 - - - - W 2 6 1 3 - - -
30/10:30am 12.2 - - - - WSW 9 13 5 7 - - -
30/10:00am 11.7 - - - - WSW 17 26 9 14 - - -
30/09:30am 11.7 - - - - W 17 22 9 12 - - -
30/09:00am 11.4 - - - - W 26 33 14 18 - - -
30/08:30am 11.2 - - - - WSW 11 20 6 11 - - -
30/08:00am 10.9 - - - - WSW 15 20 8 11 - - -
30/07:30am 11.1 - - - - SW 15 19 8 10 - - -
30/07:00am 11.8 - - - - W 7 9 4 5 - - -
30/06:30am 11.4 - - - - WSW 11 13 6 7 - - -
30/06:00am 10.9 - - - - W 17 24 9 13 - - -
30/05:30am 12.5 - - - - WSW 9 13 5 7 - - -
30/05:00am 12.3 - - - - WSW 7 9 4 5 - - -
30/04:30am 12.2 - - - - W 11 15 6 8 - - -
30/04:00am 12.1 - - - - WSW 9 15 5 8 - - -
30/03:30am 12.2 - - - - WNW 13 19 7 10 - - -
30/03:00am 12.8 - - - - W 17 20 9 11 - - -
30/02:30am 12.7 - - - - W 11 15 6 8 - - -
30/02:00am 12.9 - - - - WSW 7 9 4 5 - - -
30/01:30am 12.8 - - - - WSW 6 7 3 4 - - -
30/01:00am 13.0 - - - - WSW 7 9 4 5 - - -
30/12:30am 13.1 - - - - W 6 7 3 4 - - -
30/12:00am 13.5 - - - - SW 11 15 6 8 - - -
 
Date/Time
EST
Temp
°C
App
Temp
°C
Dew
Point
Rel
Hum
%
Delta-T
°C
Wind Press
QNH
hPa
Press
MSL
hPa
Rain
since 9 am
mm
Dir
 
Spd
km/h
Gust
km/h
Spd
kts
Gust
kts
29/11:30pm 14.6 - - - - NNW 7 11 4 6 - - -
29/11:00pm 14.2 - - - - NNW 9 11 5 6 - - -
29/10:30pm 14.6 - - - - NW 9 15 5 8 - - -
29/10:00pm 14.6 - - - - ENE 6 7 3 4 - - -
29/09:30pm 14.7 - - - - N 6 7 3 4 - - -
29/09:00pm 14.6 - - - - CALM 0 0 0 0 - - -
29/08:30pm 14.7 - - - - N 6 7 3 4 - - -
29/08:00pm 14.9 - - - - N 2 7 1 4 - - -
29/07:30pm 15.3 - - - - N 2 6 1 3 - - -
29/07:00pm 16.0 - - - - N 7 9 4 5 - - -
29/06:30pm 16.0 - - - - N 9 9 5 5 - - -
29/06:00pm 16.1 - - - - N 9 11 5 6 - - -
29/05:30pm 17.1 - - - - NE 15 17 8 9 - - -
29/05:00pm 17.0 - - - - NE 11 13 6 7 - - -
29/04:30pm 17.1 - - - - ENE 13 15 7 8 - - -
29/04:00pm 17.2 - - - - ENE 13 15 7 8 - - -
29/03:30pm 17.7 - - - - E 11 15 6 8 - - -
29/03:00pm 17.6 - - - - E 11 15 6 8 - - -
29/02:30pm 17.9 - - - - ESE 9 13 5 7 - - -
29/02:00pm 17.6 - - - - SW 4 13 2 7 - - -
29/01:30pm 19.2 - - - - CALM 0 2 0 1 - - -
29/01:00pm 16.6 - - - - WSW 6 7 3 4 - - -
29/12:30pm 16.1 - - - - WSW 9 11 5 6 - - -
29/12:00pm 15.6 - - - - WSW 9 11 5 6 - - -
29/11:30am 14.8 - - - - WSW 13 15 7 8 - - -
29/11:00am 14.1 - - - - SW 13 17 7 9 - - -
29/10:30am 13.8 - - - - WSW 7 11 4 6 - - -
29/10:00am 12.9 - - - - WSW 11 15 6 8 - - -
29/09:30am 12.3 - - - - WSW 9 13 5 7 - - -
29/09:00am 11.8 - - - - W 7 11 4 6 - - -
29/08:30am 11.4 - - - - W 7 11 4 6 - - -
29/08:00am 11.2 - - - - W 9 13 5 7 - - -
29/07:30am 10.9 - - - - WSW 13 19 7 10 - - -
29/07:00am 10.8 - - - - WSW 13 19 7 10 - - -
29/06:30am 11.1 - - - - WSW 9 13 5 7 - - -
29/06:00am 11.3 - - - - SW 11 15 6 8 - - -
29/05:30am 11.5 - - - - WSW 11 15 6 8 - - -
29/05:00am 11.6 - - - - WSW 9 11 5 6 - - -
29/04:30am 12.1 - - - - WSW 9 13 5 7 - - -
29/04:00am 11.9 - - - - WSW 7 11 4 6 - - -
29/03:30am 11.6 - - - - WSW 11 15 6 8 - - -
29/03:00am 11.6 - - - - SW 13 15 7 8 - - -
29/02:30am 11.8 - - - - WSW 9 11 5 6 - - -
29/02:00am 11.8 - - - - WSW 13 15 7 8 - - -
29/01:30am 12.1 - - - - WSW 7 11 4 6 - - -
29/01:00am 12.2 - - - - WSW 9 13 5 7 - - -
29/12:30am 12.3 - - - - W 11 13 6 7 - - -
29/12:00am 12.9 - - - - WSW 13 17 7 9 - - -
 
Date/Time
EST
Temp
°C
App
Temp
°C
Dew
Point
Rel
Hum
%
Delta-T
°C
Wind Press
QNH
hPa
Press
MSL
hPa
Rain
since 9 am
mm
Dir
 
Spd
km/h
Gust
km/h
Spd
kts
Gust
kts
28/11:30pm 13.2 - - - - WSW 15 17 8 9 - - -
28/11:00pm 14.1 - - - - WSW 7 7 4 4 - - -

Other Formats:

Comma delimited format used in spreadsheet applications
http://www.bom.gov.au/fwo/IDN60801/IDN60801.95766.axf

JavaScript Object Notation format (JSON) in row-major order
http://www.bom.gov.au/fwo/IDN60801/IDN60801.95766.json